Time;durP1;ratioP1;P1;durP2;ratioP2;P2;SDS_P1;SDS_P2;PMS_P1;PMS_P2;Temp;Humidity;BMP_temperature;BMP_pressure;BME280_temperature;BME280_humidity;BME280_pressure;Samples;Min_cycle;Max_cycle;Signal;HPM_P1;HPM_P2
2023/12/16 00:02:53;;;;;;;32.70;9.65;;;;;;;;;;10290574;28;20052;-75
2023/12/16 00:07:50;;;;;;;23.88;8.77;;;;;;;;;;10295355;28;21678;-74
2023/12/16 00:12:46;;;;;;;30.33;10.73;;;;;;;;;;10292164;28;20504;-74
2023/12/16 00:17:43;;;;;;;23.02;8.15;;;;;;;;;;10305969;28;20106;-76
2023/12/16 00:22:39;;;;;;;31.08;10.10;;;;;;;;;;10303248;28;20516;-75
2023/12/16 00:27:36;;;;;;;22.27;9.85;;;;;;;;;;10293733;28;20111;-75
2023/12/16 00:32:33;;;;;;;34.10;9.65;;;;;;;;;;10293150;28;20048;-75
2023/12/16 00:37:29;;;;;;;26.88;9.27;;;;;;;;;;10277355;28;20052;-74
2023/12/16 00:42:26;;;;;;;18.15;9.70;;;;;;;;;;10299649;28;20056;-74
2023/12/16 00:47:23;;;;;;;21.95;9.13;;;;;;;;;;10298928;28;20563;-75
2023/12/16 00:52:19;;;;;;;27.95;11.35;;;;;;;;;;10301948;28;20126;-75
2023/12/16 00:57:15;;;;;;;27.65;10.00;;;;;;;;;;10299374;28;20067;-73
2023/12/16 01:02:12;;;;;;;28.67;9.68;;;;;;;;;;10283969;28;20090;-75
2023/12/16 01:07:09;;;;;;;25.77;9.10;;;;;;;;;;10316935;28;20052;-75
2023/12/16 01:12:05;;;;;;;20.02;9.10;;;;;;;;;;10314200;28;20131;-74
2023/12/16 01:17:02;;;;;;;34.60;9.95;;;;;;;;;;10298577;28;20059;-75
2023/12/16 01:21:59;;;;;;;17.92;8.65;;;;;;;;;;10304258;28;20049;-75
2023/12/16 01:26:55;;;;;;;20.27;8.45;;;;;;;;;;10313921;28;20049;-75
2023/12/16 01:31:51;;;;;;;18.40;8.82;;;;;;;;;;10291553;28;20087;-75
2023/12/16 01:36:48;;;;;;;27.23;8.68;;;;;;;;;;10309503;28;20106;-75
2023/12/16 01:41:44;;;;;;;19.38;7.95;;;;;;;;;;10301994;28;20049;-75
2023/12/16 01:46:40;;;;;;;32.75;8.85;;;;;;;;;;10295433;28;20098;-75
2023/12/16 01:51:37;;;;;;;28.25;8.07;;;;;;;;;;10305912;28;20102;-74
2023/12/16 01:56:34;;;;;;;27.08;8.73;;;;;;;;;;10298966;28;20052;-75
2023/12/16 02:01:31;;;;;;;24.30;8.07;;;;;;;;;;10298017;28;20107;-74
2023/12/16 02:06:28;;;;;;;25.33;7.78;;;;;;;;;;10304185;28;20789;-75
2023/12/16 02:11:24;;;;;;;20.63;7.57;;;;;;;;;;10313682;28;20058;-75
2023/12/16 02:16:20;;;;;;;25.55;8.02;;;;;;;;;;10284477;28;20049;-75
2023/12/16 02:21:17;;;;;;;21.67;8.30;;;;;;;;;;10294188;28;20409;-75
2023/12/16 02:26:13;;;;;;;21.90;6.82;;;;;;;;;;10290888;28;20547;-75
2023/12/16 02:31:09;;;;;;;22.65;8.60;;;;;;;;;;10313878;28;20056;-74
2023/12/16 02:36:06;;;;;;;14.40;6.90;;;;;;;;;;10306224;28;20520;-76
2023/12/16 02:41:03;;;;;;;18.15;7.07;;;;;;;;;;10299083;28;20045;-75
2023/12/16 02:45:59;;;;;;;16.58;6.85;;;;;;;;;;10284554;28;20045;-75
2023/12/16 02:50:55;;;;;;;19.45;6.55;;;;;;;;;;10291829;28;20046;-75
2023/12/16 02:55:52;;;;;;;20.80;6.65;;;;;;;;;;10309695;28;20658;-75
2023/12/16 03:00:48;;;;;;;14.68;5.65;;;;;;;;;;10325370;28;20056;-75
2023/12/16 03:05:44;;;;;;;12.25;5.82;;;;;;;;;;10291762;28;20059;-75
2023/12/16 03:10:41;;;;;;;14.65;6.18;;;;;;;;;;10303005;28;20131;-74
2023/12/16 03:15:37;;;;;;;22.58;6.35;;;;;;;;;;10302853;28;20079;-75
2023/12/16 03:20:33;;;;;;;16.38;5.85;;;;;;;;;;10308133;28;20577;-75
2023/12/16 03:25:29;;;;;;;10.00;5.05;;;;;;;;;;10294754;28;20500;-75
2023/12/16 03:30:26;;;;;;;19.25;5.65;;;;;;;;;;10298849;28;20056;-75
2023/12/16 03:35:22;;;;;;;11.68;5.32;;;;;;;;;;10307418;28;20056;-76
2023/12/16 03:40:18;;;;;;;16.20;5.68;;;;;;;;;;10312869;28;20080;-75
2023/12/16 03:45:15;;;;;;;14.82;5.20;;;;;;;;;;10301259;28;20048;-75
2023/12/16 03:50:11;;;;;;;7.45;4.30;;;;;;;;;;10303713;28;20114;-76
2023/12/16 03:55:07;;;;;;;17.75;5.22;;;;;;;;;;10302801;28;20054;-73
2023/12/16 04:00:05;;;;;;;11.85;4.90;;;;;;;;;;10307241;28;20059;-76
2023/12/16 04:05:01;;;;;;;17.33;5.30;;;;;;;;;;10318230;28;20587;-76
2023/12/16 04:09:58;;;;;;;12.02;5.05;;;;;;;;;;10289122;28;20055;-76
2023/12/16 04:14:54;;;;;;;13.70;4.93;;;;;;;;;;10307463;28;20048;-76
2023/12/16 04:19:51;;;;;;;10.13;4.90;;;;;;;;;;10312244;28;20488;-76
2023/12/16 04:24:50;;;;;;;12.82;6.32;;;;;;;;;;10302680;28;20040;-75
2023/12/16 04:29:46;;;;;;;12.68;5.03;;;;;;;;;;10297763;28;20069;-74
2023/12/16 04:34:43;;;;;;;18.17;5.60;;;;;;;;;;10315561;28;20044;-76
2023/12/16 04:39:39;;;;;;;14.10;5.80;;;;;;;;;;10294366;28;20060;-76
2023/12/16 04:44:36;;;;;;;10.32;4.57;;;;;;;;;;10304272;28;20936;-75
2023/12/16 04:49:33;;;;;;;14.73;5.53;;;;;;;;;;10318681;28;20198;-75
2023/12/16 04:54:29;;;;;;;12.98;5.35;;;;;;;;;;10303719;28;20052;-74
2023/12/16 04:59:25;;;;;;;10.82;5.03;;;;;;;;;;10305448;28;20048;-75
2023/12/16 05:04:22;;;;;;;12.07;5.55;;;;;;;;;;10302367;28;20444;-76
2023/12/16 05:09:19;;;;;;;9.88;5.32;;;;;;;;;;10313298;28;20061;-75
2023/12/16 05:14:15;;;;;;;15.93;5.38;;;;;;;;;;10307879;28;20075;-76
2023/12/16 05:19:11;;;;;;;14.85;4.95;;;;;;;;;;10282876;28;20049;-76
2023/12/16 05:24:08;;;;;;;20.73;5.57;;;;;;;;;;10292382;28;20052;-75
2023/12/16 05:29:04;;;;;;;10.50;5.57;;;;;;;;;;10306566;28;20045;-76
2023/12/16 05:34:00;;;;;;;11.30;5.00;;;;;;;;;;10298031;28;20045;-76
2023/12/16 05:38:57;;;;;;;18.75;5.32;;;;;;;;;;10308849;28;20123;-76
2023/12/16 05:43:53;;;;;;;8.95;4.72;;;;;;;;;;10283421;28;20094;-75
2023/12/16 05:48:49;;;;;;;14.43;4.88;;;;;;;;;;10308633;28;20052;-76
2023/12/16 05:53:46;;;;;;;12.70;5.35;;;;;;;;;;10305909;28;20064;-75
2023/12/16 05:58:42;;;;;;;10.63;4.90;;;;;;;;;;10312040;28;20095;-76
2023/12/16 06:03:38;;;;;;;13.02;4.85;;;;;;;;;;10312246;28;20048;-76
2023/12/16 06:08:34;;;;;;;10.98;5.00;;;;;;;;;;10300828;28;20077;-75
2023/12/16 06:13:31;;;;;;;15.60;5.47;;;;;;;;;;10278902;28;20049;-75
2023/12/16 06:18:27;;;;;;;8.85;5.07;;;;;;;;;;10307708;28;20076;-76
2023/12/16 06:23:24;;;;;;;15.00;5.40;;;;;;;;;;10294816;28;20516;-76
2023/12/16 06:28:20;;;;;;;10.45;5.05;;;;;;;;;;10285541;28;20056;-76
2023/12/16 06:33:16;;;;;;;10.65;5.13;;;;;;;;;;10311473;28;20519;-76
2023/12/16 06:38:13;;;;;;;11.48;5.18;;;;;;;;;;10306800;28;20498;-76
2023/12/16 06:43:09;;;;;;;8.15;5.20;;;;;;;;;;10312589;28;20539;-76
2023/12/16 06:48:05;;;;;;;11.25;5.38;;;;;;;;;;10302010;28;20037;-76
2023/12/16 06:53:02;;;;;;;16.17;5.00;;;;;;;;;;10297544;28;20048;-75
2023/12/16 06:57:58;;;;;;;13.02;5.75;;;;;;;;;;10309904;28;20048;-76
2023/12/16 07:02:54;;;;;;;14.15;5.47;;;;;;;;;;10274770;28;20508;-76
2023/12/16 07:07:51;;;;;;;17.65;5.10;;;;;;;;;;10308591;28;20048;-75
2023/12/16 07:12:47;;;;;;;12.10;5.28;;;;;;;;;;10279567;28;20110;-75
2023/12/16 07:17:44;;;;;;;11.50;5.30;;;;;;;;;;10292637;28;20090;-77
2023/12/16 07:22:40;;;;;;;13.80;5.57;;;;;;;;;;10305944;28;20567;-76
2023/12/16 07:27:36;;;;;;;13.45;6.10;;;;;;;;;;10300623;28;20064;-75
2023/12/16 07:32:33;;;;;;;11.93;5.40;;;;;;;;;;10291487;28;20048;-76
2023/12/16 07:37:30;;;;;;;13.27;5.97;;;;;;;;;;10308624;28;20480;-76
2023/12/16 07:42:26;;;;;;;9.05;4.85;;;;;;;;;;10291438;28;20132;-75
2023/12/16 07:47:22;;;;;;;13.77;5.35;;;;;;;;;;10304296;28;20106;-77
2023/12/16 07:52:19;;;;;;;21.80;6.32;;;;;;;;;;10292375;28;20127;-76
2023/12/16 07:57:15;;;;;;;15.68;6.07;;;;;;;;;;10301198;28;20059;-75
2023/12/16 08:02:12;;;;;;;14.27;5.82;;;;;;;;;;10307549;28;20044;-77
2023/12/16 08:07:08;;;;;;;25.58;6.60;;;;;;;;;;10278257;28;20056;-74
2023/12/16 08:12:05;;;;;;;21.02;5.75;;;;;;;;;;10287164;28;20052;-76
2023/12/16 08:17:01;;;;;;;15.10;6.20;;;;;;;;;;10292988;28;20043;-77
2023/12/16 08:22:00;;;;;;;21.50;7.25;;;;;;;;;;10284834;28;20114;-74
2023/12/16 08:26:56;;;;;;;17.88;6.60;;;;;;;;;;10296629;28;20052;-76
2023/12/16 08:31:52;;;;;;;9.35;6.32;;;;;;;;;;10288994;28;20057;-77
2023/12/16 08:36:49;;;;;;;22.67;6.80;;;;;;;;;;10296633;28;20474;-77
2023/12/16 08:41:45;;;;;;;16.85;7.50;;;;;;;;;;10306802;28;20041;-77
2023/12/16 08:46:42;;;;;;;17.00;6.60;;;;;;;;;;10308019;28;20052;-76
2023/12/16 08:51:38;;;;;;;23.48;6.93;;;;;;;;;;10305343;28;20057;-76
2023/12/16 08:56:34;;;;;;;15.20;6.70;;;;;;;;;;10305699;28;20048;-75
2023/12/16 09:01:32;;;;;;;15.02;6.18;;;;;;;;;;10309825;28;20479;-76
2023/12/16 09:06:28;;;;;;;15.95;6.72;;;;;;;;;;10303956;28;20056;-77
2023/12/16 09:11:25;;;;;;;18.50;7.72;;;;;;;;;;10289858;28;20048;-76
2023/12/16 09:16:21;;;;;;;23.20;7.85;;;;;;;;;;10299142;28;20098;-75
2023/12/16 09:21:18;;;;;;;16.83;8.07;;;;;;;;;;10297796;28;20508;-77
2023/12/16 09:26:14;;;;;;;18.75;8.77;;;;;;;;;;10314837;28;20454;-76
2023/12/16 09:31:10;;;;;;;23.45;9.85;;;;;;;;;;10308041;28;20056;-75
2023/12/16 09:36:11;;;;;;;17.05;9.95;;;;;;;;;;10311573;28;20065;-76
2023/12/16 09:41:19;;;;;;;24.30;10.35;;;;;;;;;;10306864;28;20128;-75
2023/12/16 09:46:16;;;;;;;19.67;8.93;;;;;;;;;;10316674;28;20370;-77
2023/12/16 09:51:13;;;;;;;14.10;10.57;;;;;;;;;;10300861;28;20068;-75
2023/12/16 09:56:11;;;;;;;18.52;11.38;;;;;;;;;;10293468;28;20512;-75
2023/12/16 10:01:07;;;;;;;17.15;10.77;;;;;;;;;;10305228;28;20543;-76
2023/12/16 10:06:05;;;;;;;18.45;11.52;;;;;;;;;;10300253;28;20047;-76
2023/12/16 10:11:02;;;;;;;16.98;11.40;;;;;;;;;;10315596;28;20416;-76
2023/12/16 10:16:16;;;;;;;18.95;11.95;;;;;;;;;;10312300;28;20055;-77
2023/12/16 10:21:19;;;;;;;21.33;12.82;;;;;;;;;;10299532;28;20507;-77
2023/12/16 10:26:21;;;;;;;26.38;12.95;;;;;;;;;;10317127;28;20123;-75
2023/12/16 10:31:18;;;;;;;25.05;13.48;;;;;;;;;;10292598;28;20068;-76
2023/12/16 10:36:15;;;;;;;28.13;14.30;;;;;;;;;;10314115;28;20044;-76
2023/12/16 10:41:12;;;;;;;24.33;14.25;;;;;;;;;;10306799;28;20056;-77
2023/12/16 10:46:09;;;;;;;23.98;14.90;;;;;;;;;;10311201;28;20044;-75
2023/12/16 10:51:07;;;;;;;25.17;15.48;;;;;;;;;;10309380;28;20764;-77
2023/12/16 10:56:06;;;;;;;27.40;14.93;;;;;;;;;;10309071;28;20513;-76
2023/12/16 11:01:09;;;;;;;19.08;14.40;;;;;;;;;;10316411;22;20117;-78
2023/12/16 11:06:21;;;;;;;28.88;16.33;;;;;;;;;;10307603;28;20484;-77
2023/12/16 11:11:53;;;;;;;21.52;15.50;;;;;;;;;;10278592;28;20049;-78
2023/12/16 11:28:36;;;;;;;30.45;18.13;;;;;;;;;;10653712;22;20052;-75
2023/12/16 12:51:44;;;;;;;37.90;26.70;;;;;;;;;;6711715;22;20037;-74
2023/12/16 15:41:17;;;;;;;;;;;;;;;;;;;;;
2023/12/16 15:52:59;;;;;;;22.65;16.10;;;;;;;;;;10210184;22;20076;-74
2023/12/16 15:58:16;;;;;;;20.00;15.18;;;;;;;;;;10281329;28;20131;-75
2023/12/16 19:03:24;;;;;;;36.60;20.83;;;;;;;;;;10298310;28;20041;-77
2023/12/16 19:08:22;;;;;;;32.08;21.38;;;;;;;;;;10305633;28;20044;-77
2023/12/16 19:13:22;;;;;;;38.80;20.88;;;;;;;;;;10305081;28;20048;-77
2023/12/16 19:18:18;;;;;;;34.20;20.88;;;;;;;;;;10297851;28;20080;-77
2023/12/16 21:41:24;;;;;;;;;;;;;;;;;;;;;
2023/12/16 21:52:41;;;;;;;27.10;17.27;;;;;;;;;;10016973;28;20541;-71
2023/12/16 21:57:38;;;;;;;30.83;19.38;;;;;;;;;;10197498;28;20461;-71
2023/12/16 22:02:34;;;;;;;29.73;18.35;;;;;;;;;;10205934;28;20058;-71
2023/12/16 22:07:31;;;;;;;31.55;19.77;;;;;;;;;;10191783;28;20092;-71
2023/12/16 22:12:27;;;;;;;43.83;19.65;;;;;;;;;;10183146;28;20074;-71
2023/12/16 22:17:23;;;;;;;37.63;19.90;;;;;;;;;;10192609;28;20501;-71
2023/12/16 22:22:20;;;;;;;35.42;21.38;;;;;;;;;;10196020;28;20505;-71
2023/12/16 22:27:16;;;;;;;32.80;20.45;;;;;;;;;;10190980;28;20356;-71
2023/12/16 22:32:12;;;;;;;37.33;21.67;;;;;;;;;;10193710;28;20134;-71
2023/12/16 22:37:09;;;;;;;39.72;22.58;;;;;;;;;;10188591;28;20096;-72
2023/12/16 22:42:05;;;;;;;33.55;21.70;;;;;;;;;;10190265;28;20053;-72
2023/12/16 22:47:02;;;;;;;38.85;21.15;;;;;;;;;;10187871;28;20053;-71
2023/12/16 22:51:58;;;;;;;30.23;19.48;;;;;;;;;;10185786;28;20553;-72
2023/12/16 22:56:55;;;;;;;36.25;22.45;;;;;;;;;;10186139;28;20046;-71
2023/12/16 23:01:51;;;;;;;36.63;21.60;;;;;;;;;;10187546;28;20531;-72
2023/12/16 23:06:47;;;;;;;41.58;21.98;;;;;;;;;;10185537;28;20058;-72
2023/12/16 23:11:44;;;;;;;38.25;22.10;;;;;;;;;;10188937;28;20041;-71
2023/12/16 23:16:40;;;;;;;39.00;21.77;;;;;;;;;;10188901;28;20560;-71
2023/12/16 23:21:44;;;;;;;41.80;22.92;;;;;;;;;;10183133;28;20054;-71
2023/12/16 23:26:40;;;;;;;37.10;23.17;;;;;;;;;;10179039;28;20049;-71
2023/12/16 23:31:36;;;;;;;40.75;23.95;;;;;;;;;;10218512;23;20127;-71
2023/12/16 23:36:34;;;;;;;34.47;20.88;;;;;;;;;;10302697;28;20482;-70
2023/12/16 23:41:30;;;;;;;34.17;21.48;;;;;;;;;;10302446;28;20462;-70
2023/12/16 23:46:27;;;;;;;32.33;20.40;;;;;;;;;;10302686;28;20045;-71
2023/12/16 23:51:23;;;;;;;34.90;22.58;;;;;;;;;;10292830;28;20106;-71
2023/12/16 23:56:21;;;;;;;29.38;18.15;;;;;;;;;;10307343;28;20045;-70
